DA626 EGPH-EGPH

Flight info

Callsign DA626
Flight time N/A
Altitude 2000
Route EXIT VIA SOUTH
Aircraft C152/L-SDE3FGHIRWY/C

Departure

Time 2026-05-03 20:49
Airport Edinburgh Airport (EGPH)

Arrival

Time N/A
Airport Edinburgh Airport (EGPH)
Time Latitude Longitude Altitude Speed Heading
2026-05-03 20:30 55.94673 -3.35246 111 ft 0 kts 250°
2026-05-03 20:33 55.94673 -3.35245 111 ft 0 kts 250°
2026-05-03 20:35 55.94673 -3.35246 111 ft 0 kts 250°
2026-05-03 20:39 55.94673 -3.35247 111 ft 2 kts 258°
2026-05-03 20:40 55.94707 -3.35275 111 ft 7 kts 355°
2026-05-03 20:40 55.94747 -3.35295 111 ft 7 kts 330°
2026-05-03 20:40 55.94790 -3.35402 111 ft 11 kts 297°
2026-05-03 20:40 55.94833 -3.35535 111 ft 12 kts 298°
2026-05-03 20:41 55.94870 -3.35658 111 ft 11 kts 299°
2026-05-03 20:41 55.94912 -3.35797 111 ft 12 kts 299°
2026-05-03 20:41 55.94977 -3.35862 111 ft 11 kts 11°
2026-05-03 20:41 55.95043 -3.35840 111 ft 10 kts 320°
2026-05-03 20:42 55.95077 -3.35943 110 ft 11 kts 301°
2026-05-03 20:42 55.95107 -3.36076 110 ft 11 kts 288°
2026-05-03 20:42 55.95129 -3.36197 110 ft 9 kts 289°
2026-05-03 20:42 55.95123 -3.36315 110 ft 11 kts 235°
2026-05-03 20:43 55.95080 -3.36440 110 ft 16 kts 240°
2026-05-03 20:43 55.95015 -3.36632 110 ft 20 kts 237°
2026-05-03 20:43 55.94938 -3.36855 110 ft 22 kts 237°
2026-05-03 20:43 55.94854 -3.37097 110 ft 24 kts 239°
2026-05-03 20:44 55.94768 -3.37362 110 ft 26 kts 239°
2026-05-03 20:44 55.94675 -3.37639 110 ft 25 kts 242°
2026-05-03 20:44 55.94596 -3.37845 110 ft 12 kts 232°
2026-05-03 20:44 55.94592 -3.37944 110 ft 7 kts 302°
2026-05-03 20:45 55.94617 -3.37978 110 ft 7 kts 329°
2026-05-03 20:45 55.94635 -3.37997 110 ft 2 kts 331°
2026-05-03 20:45 55.94711 -3.38070 109 ft 11 kts 359°
2026-05-03 20:45 55.94734 -3.38035 109 ft 0 kts 50°
2026-05-03 20:46 55.94734 -3.38034 109 ft 0 kts 54°
2026-05-03 20:46 55.94739 -3.38019 109 ft 11 kts 60°
2026-05-03 20:47 55.94842 -3.37718 108 ft 44 kts 58°
2026-05-03 20:47 55.95042 -3.37126 125 ft 65 kts 57°
2026-05-03 20:47 55.95260 -3.36456 229 ft 63 kts 56°
2026-05-03 20:47 55.95506 -3.35830 332 ft 62 kts 52°
2026-05-03 20:48 55.95720 -3.35189 427 ft 61 kts 83°
2026-05-03 20:48 55.95545 -3.34559 533 ft 58 kts 131°
2026-05-03 20:48 55.95244 -3.34096 602 ft 58 kts 140°
2026-05-03 20:48 55.94922 -3.33648 677 ft 58 kts 137°
2026-05-03 20:49 55.94577 -3.33211 726 ft 67 kts 156°
2026-05-03 20:49 55.94171 -3.32896 838 ft 63 kts 147°
2026-05-03 20:49 55.93803 -3.32520 939 ft 59 kts 146°
2026-05-03 20:49 55.93443 -3.32101 957 ft 68 kts 141°
2026-05-03 20:50 55.93014 -3.31677 1048 ft 68 kts 145°
2026-05-03 20:50 55.92602 -3.31249 1132 ft 69 kts 153°
2026-05-03 20:50 55.92202 -3.30953 1290 ft 59 kts 152°
2026-05-03 20:50 55.91817 -3.30647 1352 ft 59 kts 154°
2026-05-03 20:51 55.91437 -3.30415 1421 ft 60 kts 155°
2026-05-03 20:51 55.91050 -3.30148 1480 ft 65 kts 149°
2026-05-03 20:51 55.90750 -3.29705 1590 ft 57 kts 139°
2026-05-03 20:51 55.90387 -3.29450 1654 ft 60 kts 172°
2026-05-03 20:52 55.89981 -3.29265 1734 ft 62 kts 161°
2026-05-03 20:52 55.89543 -3.29157 1805 ft 63 kts 174°
2026-05-03 20:52 55.89149 -3.29105 1931 ft 54 kts 167°
2026-05-03 20:52 55.88792 -3.29004 1974 ft 53 kts 172°
2026-05-03 20:53 55.88360 -3.28941 1983 ft 65 kts 175°
2026-05-03 20:53 55.87913 -3.28934 2096 ft 62 kts 175°
2026-05-03 20:53 55.87514 -3.28909 2191 ft 56 kts 171°
2026-05-03 20:53 55.87069 -3.28817 2208 ft 68 kts 169°
2026-05-03 20:54 55.86594 -3.28678 2296 ft 69 kts 166°
2026-05-03 20:54 55.85647 -3.28326 2490 ft 71 kts 166°
2026-05-03 20:54 55.85186 -3.28085 2617 ft 64 kts 153°
2026-05-03 20:55 55.84738 -3.27934 2695 ft 71 kts 172°
2026-05-03 20:55 55.84234 -3.27987 2789 ft 74 kts 184°
2026-05-03 20:55 55.83724 -3.28058 2877 ft 73 kts 179°
2026-05-03 20:55 55.83214 -3.28051 2951 ft 74 kts 175°
2026-05-03 20:56 55.82696 -3.28185 2971 ft 80 kts 196°
2026-05-03 20:56 55.82147 -3.28415 3013 ft 83 kts 187°
2026-05-03 20:56 55.81558 -3.28531 3039 ft 89 kts 181°
2026-05-03 20:56 55.80922 -3.28545 3067 ft 94 kts 175°
2026-05-03 20:57 55.80272 -3.28406 3109 ft 94 kts 168°
2026-05-03 20:57 55.79598 -3.28155 3080 ft 101 kts 166°
2026-05-03 20:57 55.78949 -3.27851 3146 ft 97 kts 157°
2026-05-03 20:57 55.78286 -3.27416 3079 ft 105 kts 154°
2026-05-03 20:58 55.77605 -3.26900 3087 ft 100 kts 153°
2026-05-03 20:58 55.76962 -3.26400 3082 ft 101 kts 154°
2026-05-03 20:58 55.76302 -3.25917 3061 ft 105 kts 153°
2026-05-03 20:58 55.75610 -3.25421 2991 ft 110 kts 154°
2026-05-03 20:59 55.74903 -3.24888 2925 ft 110 kts 153°
2026-05-03 20:59 55.74179 -3.24358 2816 ft 113 kts 156°
2026-05-03 20:59 55.73487 -3.23860 2813 ft 103 kts 153°
2026-05-03 20:59 55.72898 -3.23320 2894 ft 90 kts 143°
2026-05-03 21:00 55.72320 -3.22808 2822 ft 98 kts 153°
2026-05-03 21:00 55.71891 -3.22520 2789 ft 99 kts 157°
2026-05-03 21:00 55.70999 -3.22079 2718 ft 102 kts 161°
2026-05-03 21:00 55.70292 -3.21709 2561 ft 109 kts 159°
2026-05-03 21:01 55.69569 -3.21330 2435 ft 110 kts 160°
2026-05-03 21:01 55.68836 -3.20932 2244 ft 112 kts 159°
2026-05-03 21:01 55.68116 -3.20478 2140 ft 105 kts 156°
2026-05-03 21:01 55.67415 -3.20033 1928 ft 110 kts 157°
2026-05-03 21:02 55.66719 -3.19587 1797 ft 104 kts 176°
2026-05-03 21:02 55.66045 -3.19859 1775 ft 97 kts 168°
2026-05-03 21:02 55.65643 -3.19098 1751 ft 92 kts 112°
2026-05-03 21:02 55.65163 -3.19099 1778 ft 88 kts 244°
2026-05-03 21:03 55.65440 -3.19899 1720 ft 90 kts
2026-05-03 21:03 55.65604 -3.19113 1806 ft 76 kts 126°
2026-05-03 21:03 55.65098 -3.18885 1769 ft 86 kts 200°
2026-05-03 21:03 55.64649 -3.19431 1928 ft 68 kts 186°
2026-05-03 21:04 55.64203 -3.19628 2004 ft 65 kts 191°
2026-05-03 21:04 55.63808 -3.19834 2107 ft 55 kts 193°
2026-05-03 21:04 55.63448 -3.20056 2116 ft 58 kts 192°
2026-05-03 21:04 55.63056 -3.20288 2129 ft 65 kts 192°
2026-05-03 21:05 55.62613 -3.20561 2162 ft 69 kts 201°
2026-05-03 21:05 55.62179 -3.20925 2215 ft 69 kts 203°
2026-05-03 21:05 55.61758 -3.21324 2264 ft 69 kts 206°
2026-05-03 21:05 55.61343 -3.21753 2312 ft 70 kts 206°
2026-05-03 21:06 55.60909 -3.22143 2369 ft 70 kts 199°
2026-05-03 21:06 55.60467 -3.22493 2429 ft 71 kts 201°
2026-05-03 21:06 55.60019 -3.22845 2493 ft 70 kts 200°
2026-05-03 21:06 55.59585 -3.23177 2594 ft 66 kts 200°
2026-05-03 21:07 55.59155 -3.23459 2636 ft 67 kts 191°
2026-05-03 21:07 55.58697 -3.23610 2636 ft 69 kts 185°
2026-05-03 21:07 55.58211 -3.23738 2641 ft 71 kts 190°
2026-05-03 21:07 55.57724 -3.23870 2676 ft 71 kts 177°
2026-05-03 21:08 55.57269 -3.24036 2718 ft 71 kts 234°
2026-05-03 21:08 55.57257 -3.24855 2770 ft 70 kts 268°
2026-05-03 21:08 55.57178 -3.25582 2834 ft 71 kts 240°